Time;durP1;ratioP1;P1;durP2;ratioP2;P2;SDS_P1;SDS_P2;PMS_P1;PMS_P2;Temp;Humidity;BMP_temperature;BMP_pressure;BME280_temperature;BME280_humidity;BME280_pressure;Samples;Min_cycle;Max_cycle;Signal;HPM_P1;HPM_P2
2022/04/04 00:00:55;;;;;;;;;;;2.80;99.90;;;;;;5159074;27;19929;-68
2022/04/04 00:03:21;;;;;;;;;;;2.90;99.90;;;;;;5159491;27;19934;-68
2022/04/04 00:05:48;;;;;;;;;;;2.80;99.90;;;;;;5159428;27;19978;-68
2022/04/04 00:08:13;;;;;;;;;;;0.90;99.90;;;;;;5159200;27;19927;-68
2022/04/04 00:10:39;;;;;;;;;;;2.80;99.90;;;;;;5159218;27;19983;-68
2022/04/04 00:13:04;;;;;;;;;;;2.90;99.90;;;;;;5159364;27;20009;-68
2022/04/04 00:15:30;;;;;;;;;;;2.90;99.90;;;;;;5159267;27;19923;-67
2022/04/04 00:17:55;;;;;;;;;;;2.90;99.90;;;;;;5159542;27;19923;-68
2022/04/04 00:20:22;;;;;;;;;;;2.90;99.90;;;;;;5159219;27;19930;-68
2022/04/04 00:22:48;;;;;;;;;;;3.70;99.90;;;;;;5158773;27;20275;-70
2022/04/04 00:25:14;;;;;;;;;;;4.40;99.90;;;;;;5140708;27;19929;-68
2022/04/04 00:27:40;;;;;;;;;;;2.90;99.90;;;;;;5159093;27;20334;-68
2022/04/04 00:30:06;;;;;;;;;;;2.90;99.90;;;;;;5159106;27;19927;-70
2022/04/04 00:32:32;;;;;;;;;;;3.00;99.90;;;;;;5158991;27;19929;-68
2022/04/04 00:35:00;;;;;;;;;;;3.70;99.90;;;;;;5158918;27;19923;-68
2022/04/04 00:37:26;;;;;;;;;;;3.70;99.90;;;;;;5158697;27;19923;-70
2022/04/04 00:39:51;;;;;;;;;;;2.90;99.90;;;;;;5140414;27;19987;-67
2022/04/04 00:42:17;;;;;;;;;;;4.10;99.90;;;;;;5159050;27;19991;-68
2022/04/04 00:44:44;;;;;;;;;;;3.70;99.90;;;;;;5158756;27;19923;-70
2022/04/04 00:47:09;;;;;;;;;;;3.00;99.90;;;;;;5140590;27;19923;-68
2022/04/04 00:49:35;;;;;;;;;;;5.00;99.90;;;;;;5158696;27;19946;-68
2022/04/04 00:52:01;;;;;;;;;;;4.60;99.90;;;;;;5158630;27;19950;-68
2022/04/04 00:54:27;;;;;;;;;;;4.90;99.90;;;;;;5158414;27;19923;-68
2022/04/04 00:56:52;;;;;;;;;;;3.60;99.90;;;;;;5158324;27;20433;-68
2022/04/04 00:59:20;;;;;;;;;;;1.10;99.90;;;;;;5158604;27;19987;-69
2022/04/04 01:01:46;;;;;;;;;;;3.60;99.90;;;;;;5158440;27;19923;-70
2022/04/04 01:04:12;;;;;;;;;;;4.00;99.90;;;;;;5122999;27;19930;-68
2022/04/04 01:06:38;;;;;;;;;;;3.50;99.90;;;;;;5158196;27;19930;-68
2022/04/04 01:09:04;;;;;;;;;;;3.00;99.90;;;;;;5158149;27;20370;-68
2022/04/04 01:11:30;;;;;;;;;;;3.00;99.90;;;;;;5157671;27;20350;-70
2022/04/04 01:13:55;;;;;;;;;;;2.60;99.90;;;;;;5157945;27;19974;-67
2022/04/04 01:16:21;;;;;;;;;;;3.00;99.90;;;;;;5138696;27;19927;-68
2022/04/04 01:18:46;;;;;;;;;;;4.20;99.90;;;;;;5156730;27;19923;-69
2022/04/04 01:21:12;;;;;;;;;;;3.40;99.90;;;;;;5156760;27;19927;-68
2022/04/04 01:23:42;;;;;;;;;;;4.70;99.90;;;;;;5156736;27;20416;-67
2022/04/04 01:26:09;;;;;;;;;;;3.10;99.90;;;;;;5156556;27;20017;-67
2022/04/04 01:28:34;;;;;;;;;;;3.10;99.90;;;;;;5156960;27;20339;-70
2022/04/04 01:31:00;;;;;;;;;;;3.10;99.90;;;;;;5156752;27;19923;-68
2022/04/04 01:33:26;;;;;;;;;;;3.10;99.90;;;;;;5156653;27;19961;-70
2022/04/04 01:35:52;;;;;;;;;;;3.70;99.90;;;;;;5138347;27;19923;-68
2022/04/04 01:38:17;;;;;;;;;;;3.20;99.90;;;;;;5156431;27;19930;-68
2022/04/04 01:40:43;;;;;;;;;;;3.10;99.90;;;;;;5156456;27;19923;-69
2022/04/04 01:43:09;;;;;;;;;;;4.00;99.90;;;;;;5138021;27;19923;-68
2022/04/04 01:48:18;;;;;;;;;;;3.20;99.90;;;;;;5156365;27;19931;-68
2022/04/04 01:50:44;;;;;;;;;;;3.20;99.90;;;;;;5138128;27;19923;-68
2022/04/04 01:53:25;;;;;;;;;;;3.20;99.90;;;;;;5137846;27;19923;-68
2022/04/04 01:55:51;;;;;;;;;;;3.20;99.90;;;;;;5138180;27;19927;-70
2022/04/04 01:58:17;;;;;;;;;;;4.40;99.90;;;;;;5156326;27;19931;-69
2022/04/04 02:00:42;;;;;;;;;;;3.90;99.90;;;;;;5156397;27;19923;-68
2022/04/04 02:03:08;;;;;;;;;;;3.20;99.90;;;;;;5156105;27;19926;-68
2022/04/04 02:05:35;;;;;;;;;;;3.70;99.90;;;;;;5120691;27;19977;-68
2022/04/04 02:08:00;;;;;;;;;;;3.30;99.90;;;;;;5155889;27;19923;-68
2022/04/04 02:10:26;;;;;;;;;;;3.30;99.90;;;;;;5138041;27;20255;-69
2022/04/04 02:12:51;;;;;;;;;;;3.50;99.90;;;;;;5137264;27;19923;-70
2022/04/04 02:15:17;;;;;;;;;;;3.90;99.90;;;;;;5092293;27;1785287;-68
2022/04/04 02:17:42;;;;;;;;;;;3.00;99.90;;;;;;5156733;27;19922;-68
2022/04/04 02:20:08;;;;;;;;;;;3.40;99.90;;;;;;5156824;27;19929;-67
2022/04/04 02:22:34;;;;;;;;;;;3.40;99.90;;;;;;5156071;27;20022;-68
2022/04/04 02:24:59;;;;;;;;;;;4.00;99.90;;;;;;5156964;27;19933;-67
2022/04/04 02:27:25;;;;;;;;;;;4.60;99.90;;;;;;5156719;27;20018;-68
2022/04/04 02:29:51;;;;;;;;;;;3.50;99.90;;;;;;5156700;27;19934;-68
2022/04/04 02:32:17;;;;;;;;;;;3.60;99.90;;;;;;5156613;27;19930;-68
2022/04/04 02:34:42;;;;;;;;;;;3.80;99.90;;;;;;5138133;27;19923;-69
2022/04/04 02:37:09;;;;;;;;;;;4.10;99.90;;;;;;5156441;27;20006;-68
2022/04/04 02:39:34;;;;;;;;;;;3.50;99.90;;;;;;5138044;27;19990;-69
2022/04/04 02:42:00;;;;;;;;;;;4.50;99.90;;;;;;5156534;27;19923;-68
2022/04/04 02:44:26;;;;;;;;;;;3.50;99.90;;;;;;5156511;27;20454;-68
2022/04/04 02:46:53;;;;;;;;;;;3.50;99.90;;;;;;5138201;27;19923;-69
2022/04/04 02:49:18;;;;;;;;;;;4.80;99.90;;;;;;5156279;27;19931;-69
2022/04/04 02:51:44;;;;;;;;;;;3.50;99.90;;;;;;5137772;27;19923;-69
2022/04/04 02:54:09;;;;;;;;;;;3.50;99.90;;;;;;5156192;27;19963;-68
2022/04/04 02:56:39;;;;;;;;;;;3.40;99.90;;;;;;5156010;27;19923;-68
2022/04/04 02:59:05;;;;;;;;;;;3.60;99.90;;;;;;5156209;27;20014;-67
2022/04/04 03:01:30;;;;;;;;;;;4.60;99.90;;;;;;5156064;27;20001;-68
2022/04/04 03:03:57;;;;;;;;;;;3.60;99.90;;;;;;5137735;27;19923;-68
2022/04/04 03:06:23;;;;;;;;;;;3.60;99.90;;;;;;5155858;27;20381;-68
2022/04/04 03:08:49;;;;;;;;;;;5.00;99.90;;;;;;5137476;27;19923;-68
2022/04/04 03:11:15;;;;;;;;;;;3.60;99.90;;;;;;5137291;27;19925;-68
2022/04/04 03:13:41;;;;;;;;;;;4.10;99.90;;;;;;5155693;27;19976;-69
2022/04/04 03:16:06;;;;;;;;;;;3.60;99.90;;;;;;5137334;27;20305;-68
2022/04/04 03:18:34;;;;;;;;;;;3.60;99.90;;;;;;5155717;27;19923;-70
2022/04/04 03:21:00;;;;;;;;;;;4.70;99.90;;;;;;5155411;27;20294;-71
2022/04/04 03:23:27;;;;;;;;;;;4.40;99.90;;;;;;5155631;27;19923;-68
2022/04/04 03:25:54;;;;;;;;;;;4.60;99.90;;;;;;5155599;27;19923;-70
2022/04/04 03:28:20;;;;;;;;;;;4.40;99.90;;;;;;5155746;27;20345;-68
2022/04/04 03:30:45;;;;;;;;;;;3.70;99.90;;;;;;5155642;27;19977;-69
2022/04/04 03:33:11;;;;;;;;;;;4.70;99.90;;;;;;5137329;27;20324;-68
2022/04/04 03:35:37;;;;;;;;;;;4.20;99.90;;;;;;5155587;27;19923;-68
2022/04/04 03:38:04;;;;;;;;;;;3.70;99.90;;;;;;5136962;27;19974;-69
2022/04/04 03:40:30;;;;;;;;;;;3.70;99.90;;;;;;5155165;27;19973;-68
2022/04/04 03:42:56;;;;;;;;;;;4.40;99.90;;;;;;5155484;27;19977;-68
2022/04/04 03:45:22;;;;;;;;;;;4.80;99.90;;;;;;5155483;27;20013;-70
2022/04/04 03:47:48;;;;;;;;;;;3.80;99.90;;;;;;5155409;27;19930;-68
2022/04/04 03:50:14;;;;;;;;;;;3.80;99.90;;;;;;5136945;27;19923;-68
2022/04/04 03:52:40;;;;;;;;;;;3.80;99.90;;;;;;5155176;27;19930;-69
2022/04/04 03:55:07;;;;;;;;;;;4.70;99.90;;;;;;5155220;27;19927;-68
2022/04/04 03:57:33;;;;;;;;;;;3.80;99.90;;;;;;5137084;27;19923;-68
2022/04/04 03:59:58;;;;;;;;;;;3.90;99.90;;;;;;5155379;27;19930;-70
2022/04/04 04:02:24;;;;;;;;;;;4.90;99.90;;;;;;5155039;27;19923;-69
2022/04/04 04:04:50;;;;;;;;;;;5.00;99.90;;;;;;5155242;27;19981;-69
2022/04/04 04:07:16;;;;;;;;;;;4.00;99.90;;;;;;5155015;27;19930;-69
2022/04/04 04:09:42;;;;;;;;;;;3.90;99.90;;;;;;5136886;27;19929;-69
2022/04/04 04:12:10;;;;;;;;;;;4.00;99.90;;;;;;5155374;27;19929;-68
2022/04/04 04:14:35;;;;;;;;;;;4.00;99.90;;;;;;5155055;27;20407;-68
2022/04/04 04:17:02;;;;;;;;;;;4.10;99.90;;;;;;5155123;27;19927;-69
2022/04/04 04:22:13;;;;;;;;;;;4.90;99.90;;;;;;5155061;27;19930;-68
2022/04/04 04:24:39;;;;;;;;;;;5.10;99.90;;;;;;5154921;27;19978;-68
2022/04/04 04:27:05;;;;;;;;;;;5.30;99.90;;;;;;5155370;27;19981;-68
2022/04/04 04:29:30;;;;;;;;;;;4.10;99.90;;;;;;5155141;27;19975;-71
2022/04/04 04:31:56;;;;;;;;;;;4.20;99.90;;;;;;5155046;27;19923;-68
2022/04/04 04:34:21;;;;;;;;;;;4.10;99.90;;;;;;5154939;27;19927;-70
2022/04/04 04:36:48;;;;;;;;;;;4.20;99.90;;;;;;5136707;27;20335;-67
2022/04/04 04:39:13;;;;;;;;;;;5.30;99.90;;;;;;5136264;27;19930;-68
2022/04/04 04:41:39;;;;;;;;;;;4.20;99.90;;;;;;5154649;27;19923;-69
2022/04/04 04:44:05;;;;;;;;;;;4.10;99.90;;;;;;5155084;27;19930;-70
2022/04/04 04:46:31;;;;;;;;;;;4.10;99.90;;;;;;5157678;27;19968;-68
2022/04/04 04:48:57;;;;;;;;;;;4.20;99.90;;;;;;5158674;27;19923;-68
2022/04/04 04:51:22;;;;;;;;;;;4.50;99.90;;;;;;5158542;27;19930;-69
2022/04/04 04:53:48;;;;;;;;;;;4.10;99.90;;;;;;5158323;27;19923;-68
2022/04/04 04:56:14;;;;;;;;;;;4.20;99.90;;;;;;5139904;27;19967;-70
2022/04/04 04:58:39;;;;;;;;;;;5.20;99.90;;;;;;5140368;27;19930;-68
2022/04/04 05:01:05;;;;;;;;;;;5.90;99.90;;;;;;5140054;27;19923;-67
2022/04/04 05:03:31;;;;;;;;;;;5.10;99.90;;;;;;5158376;27;19927;-68
2022/04/04 05:05:56;;;;;;;;;;;4.40;99.90;;;;;;5139936;27;19923;-70
2022/04/04 05:08:22;;;;;;;;;;;4.30;99.90;;;;;;5158181;27;20389;-68
2022/04/04 05:10:48;;;;;;;;;;;4.00;99.90;;;;;;5158128;27;19922;-70
2022/04/04 05:13:13;;;;;;;;;;;5.80;99.90;;;;;;5158229;27;20441;-69
2022/04/04 05:15:39;;;;;;;;;;;4.10;99.90;;;;;;5158114;27;20042;-69
2022/04/04 05:18:05;;;;;;;;;;;4.10;99.90;;;;;;5158075;27;19923;-68
2022/04/04 05:20:30;;;;;;;;;;;4.50;99.90;;;;;;5158097;27;19934;-68
2022/04/04 05:22:57;;;;;;;;;;;4.60;99.90;;;;;;5157614;27;19974;-68
2022/04/04 05:25:23;;;;;;;;;;;5.90;99.90;;;;;;5139674;27;19930;-69
2022/04/04 05:27:50;;;;;;;;;;;4.50;99.90;;;;;;5158064;27;19982;-68
2022/04/04 05:30:16;;;;;;;;;;;4.40;99.90;;;;;;5139421;27;19923;-69
2022/04/04 05:32:43;;;;;;;;;;;5.20;99.90;;;;;;5157904;27;19933;-69
2022/04/04 05:35:09;;;;;;;;;;;5.00;99.90;;;;;;5157771;27;19923;-68
2022/04/04 05:37:35;;;;;;;;;;;4.00;99.90;;;;;;5157630;27;20358;-68
2022/04/04 05:40:01;;;;;;;;;;;5.10;99.90;;;;;;5157495;27;19922;-69
2022/04/04 05:42:28;;;;;;;;;;;4.00;99.90;;;;;;5139187;27;19931;-69
2022/04/04 05:44:53;;;;;;;;;;;3.90;99.90;;;;;;5157645;27;20397;-69
2022/04/04 05:47:20;;;;;;;;;;;4.00;99.90;;;;;;5157661;27;19923;-69
2022/04/04 05:49:48;;;;;;;;;;;3.90;99.90;;;;;;5157560;27;19930;-69
2022/04/04 05:52:15;;;;;;;;;;;4.00;99.90;;;;;;5139252;27;20304;-69
2022/04/04 05:54:54;;;;;;;;;;;4.00;99.90;;;;;;5157317;27;19967;-69
2022/04/04 05:57:38;;;;;;;;;;;5.10;99.90;;;;;;5156245;27;19981;-68
2022/04/04 06:00:08;;;;;;;;;;;3.90;99.90;;;;;;5138914;27;19978;-68
2022/04/04 06:02:35;;;;;;;;;;;3.90;99.90;;;;;;5138436;27;19923;-68
2022/04/04 06:05:01;;;;;;;;;;;4.80;99.90;;;;;;5138849;27;20117;-69
2022/04/04 06:07:26;;;;;;;;;;;4.20;99.90;;;;;;5156963;27;19923;-69
2022/04/04 06:09:52;;;;;;;;;;;3.90;99.90;;;;;;5157313;27;19967;-69
2022/04/04 06:12:17;;;;;;;;;;;4.80;99.90;;;;;;5138980;27;19975;-69
2022/04/04 06:14:43;;;;;;;;;;;3.90;99.90;;;;;;5157057;27;20010;-68
2022/04/04 06:17:08;;;;;;;;;;;4.20;99.90;;;;;;5156929;27;20003;-69
2022/04/04 06:19:34;;;;;;;;;;;4.00;99.90;;;;;;5156755;27;19923;-68
2022/04/04 06:22:00;;;;;;;;;;;3.70;99.90;;;;;;5156759;27;19924;-69
2022/04/04 06:24:26;;;;;;;;;;;4.60;99.90;;;;;;5156704;27;19929;-69
2022/04/04 06:26:52;;;;;;;;;;;4.10;99.90;;;;;;5156885;27;20297;-68
2022/04/04 06:29:17;;;;;;;;;;;4.10;99.90;;;;;;5155472;27;20014;-70
2022/04/04 06:31:44;;;;;;;;;;;4.10;99.90;;;;;;5156478;27;19927;-68
2022/04/04 06:34:10;;;;;;;;;;;4.30;99.90;;;;;;5155233;27;19923;-68
2022/04/04 06:36:38;;;;;;;;;;;4.40;99.90;;;;;;5156293;27;20298;-68
2022/04/04 06:39:03;;;;;;;;;;;4.10;99.90;;;;;;5156242;27;20005;-68
2022/04/04 06:41:30;;;;;;;;;;;4.10;99.90;;;;;;5156320;27;20026;-68
2022/04/04 06:43:58;;;;;;;;;;;4.50;99.90;;;;;;5172112;27;19930;-70
2022/04/04 06:46:26;;;;;;;;;;;4.20;99.90;;;;;;5157885;27;19923;-69
2022/04/04 06:48:51;;;;;;;;;;;5.00;99.90;;;;;;5161052;27;19927;-69
2022/04/04 06:51:17;;;;;;;;;;;5.40;99.90;;;;;;5159909;27;19922;-69
2022/04/04 06:53:45;;;;;;;;;;;5.00;99.90;;;;;;5176752;27;19923;-69
2022/04/04 06:56:10;;;;;;;;;;;4.20;99.90;;;;;;5158851;27;19988;-69
2022/04/04 06:58:36;;;;;;;;;;;4.80;99.90;;;;;;5171981;27;20358;-69
2022/04/04 07:01:02;;;;;;;;;;;5.90;99.90;;;;;;5170936;27;19923;-70
2022/04/04 07:03:28;;;;;;;;;;;4.60;99.90;;;;;;5175179;27;19923;-70
2022/04/04 07:05:53;;;;;;;;;;;4.20;99.90;;;;;;5138380;27;19931;-68
2022/04/04 07:08:19;;;;;;;;;;;5.30;99.90;;;;;;5170523;27;20022;-68
2022/04/04 07:10:44;;;;;;;;;;;4.60;99.90;;;;;;5166440;27;19923;-68
2022/04/04 07:13:10;;;;;;;;;;;4.80;99.90;;;;;;5137388;27;20339;-69
2022/04/04 07:15:35;;;;;;;;;;;5.00;99.90;;;;;;5155959;27;19931;-69
2022/04/04 07:18:01;;;;;;;;;;;5.00;99.90;;;;;;5158983;27;19938;-68
2022/04/04 07:20:27;;;;;;;;;;;4.20;99.90;;;;;;5158259;27;19922;-68
2022/04/04 07:22:53;;;;;;;;;;;4.40;99.90;;;;;;5171752;27;19923;-70
2022/04/04 07:25:18;;;;;;;;;;;4.20;99.90;;;;;;5175946;27;20033;-68
2022/04/04 07:27:45;;;;;;;;;;;4.20;99.90;;;;;;5167274;27;20009;-67
2022/04/04 07:30:12;;;;;;;;;;;5.30;99.90;;;;;;5168826;27;19926;-67
2022/04/04 07:32:38;;;;;;;;;;;4.20;99.90;;;;;;5148739;27;20034;-67
2022/04/04 07:35:04;;;;;;;;;;;5.20;99.90;;;;;;5155350;27;19931;-67
2022/04/04 07:37:30;;;;;;;;;;;4.10;99.90;;;;;;5158489;27;19923;-68
2022/04/04 07:39:56;;;;;;;;;;;4.90;99.90;;;;;;5157136;27;19923;-69
2022/04/04 07:42:22;;;;;;;;;;;5.00;99.90;;;;;;5136821;27;19966;-68
2022/04/04 07:44:47;;;;;;;;;;;5.00;99.90;;;;;;5137368;27;20046;-68
2022/04/04 07:47:13;;;;;;;;;;;4.80;99.90;;;;;;5155509;27;20495;-67
2022/04/04 07:49:38;;;;;;;;;;;5.40;99.90;;;;;;5155295;27;20327;-69
2022/04/04 07:52:04;;;;;;;;;;;5.00;99.90;;;;;;5137059;27;19970;-67
2022/04/04 07:54:30;;;;;;;;;;;4.10;99.90;;;;;;5155199;27;19923;-68
2022/04/04 07:56:56;;;;;;;;;;;5.50;99.90;;;;;;5155470;27;19965;-68
2022/04/04 07:59:24;;;;;;;;;;;4.20;99.90;;;;;;5155372;27;19974;-69
2022/04/04 08:01:50;;;;;;;;;;;4.70;99.90;;;;;;5155164;27;20385;-68
2022/04/04 08:04:17;;;;;;;;;;;5.30;99.90;;;;;;5136923;27;19927;-68
2022/04/04 08:06:43;;;;;;;;;;;4.20;99.90;;;;;;5155174;27;19923;-68
2022/04/04 08:09:08;;;;;;;;;;;4.20;99.90;;;;;;5136613;27;19923;-68
2022/04/04 08:11:34;;;;;;;;;;;4.20;99.90;;;;;;5155290;27;19930;-68
2022/04/04 08:14:00;;;;;;;;;;;4.20;99.90;;;;;;5155092;27;19946;-68
2022/04/04 08:16:26;;;;;;;;;;;4.20;99.90;;;;;;5155187;27;19923;-69
2022/04/04 08:18:54;;;;;;;;;;;4.60;99.90;;;;;;5154953;27;19949;-68
2022/04/04 08:21:20;;;;;;;;;;;4.20;99.90;;;;;;5157779;27;19967;-68
2022/04/04 08:23:46;;;;;;;;;;;5.40;99.90;;;;;;5157520;27;20334;-68
2022/04/04 08:26:12;;;;;;;;;;;4.30;99.90;;;;;;5158993;27;19939;-68
2022/04/04 08:28:37;;;;;;;;;;;5.20;99.90;;;;;;5159292;27;20297;-69
2022/04/04 08:31:03;;;;;;;;;;;5.00;99.90;;;;;;5140944;27;20267;-69
2022/04/04 08:33:29;;;;;;;;;;;4.30;99.90;;;;;;5158941;27;19975;-69
2022/04/04 08:35:55;;;;;;;;;;;4.30;99.90;;;;;;5158806;27;20374;-68
2022/04/04 08:38:21;;;;;;;;;;;4.30;99.90;;;;;;5140020;27;20401;-69
2022/04/04 08:40:48;;;;;;;;;;;4.30;99.90;;;;;;5158668;27;19927;-69
2022/04/04 08:43:15;;;;;;;;;;;4.30;99.90;;;;;;5140469;27;19930;-69
2022/04/04 08:45:44;;;;;;;;;;;5.40;99.90;;;;;;5157872;27;19923;-69
2022/04/04 08:48:10;;;;;;;;;;;4.40;99.90;;;;;;5158599;27;20035;-69
2022/04/04 08:50:37;;;;;;;;;;;4.40;99.90;;;;;;5139981;27;19929;-68
2022/04/04 08:53:04;;;;;;;;;;;4.70;99.90;;;;;;5139649;27;19934;-68
2022/04/04 08:55:29;;;;;;;;;;;4.50;99.90;;;;;;5122067;27;19977;-70
2022/04/04 08:57:56;;;;;;;;;;;6.10;99.90;;;;;;5158366;27;19974;-67
2022/04/04 09:00:22;;;;;;;;;;;6.20;99.90;;;;;;5158184;27;19923;-68
2022/04/04 09:03:04;;;;;;;;;;;6.00;99.90;;;;;;5122173;27;19923;-68
2022/04/04 09:05:34;;;;;;;;;;;4.60;99.90;;;;;;5139313;27;19981;-67
2022/04/04 09:08:00;;;;;;;;;;;4.60;99.90;;;;;;5157897;27;19930;-69
2022/04/04 09:10:29;;;;;;;;;;;5.20;99.90;;;;;;5151161;27;19930;-68
2022/04/04 09:13:03;;;;;;;;;;;4.70;99.90;;;;;;5160195;27;19923;-70
2022/04/04 09:15:48;;;;;;;;;;;5.70;99.90;;;;;;5178499;27;19923;-69
2022/04/04 09:18:13;;;;;;;;;;;4.80;99.90;;;;;;5178493;27;19923;-69
2022/04/04 09:20:47;;;;;;;;;;;5.70;99.90;;;;;;5160344;27;19930;-69
2022/04/04 09:23:12;;;;;;;;;;;5.00;99.90;;;;;;5159272;27;19929;-70
2022/04/04 09:25:38;;;;;;;;;;;4.90;99.90;;;;;;5159978;27;19923;-67
2022/04/04 09:28:17;;;;;;;;;;;4.90;99.90;;;;;;5178535;27;19923;-67
2022/04/04 09:30:43;;;;;;;;;;;5.00;99.90;;;;;;5178295;27;19929;-68
2022/04/04 09:33:15;;;;;;;;;;;5.00;99.90;;;;;;5178379;27;19930;-68
2022/04/04 09:35:44;;;;;;;;;;;5.00;99.90;;;;;;5159422;27;19973;-68
2022/04/04 09:38:15;;;;;;;;;;;5.00;99.90;;;;;;5178454;27;19984;-68
2022/04/04 09:40:41;;;;;;;;;;;5.10;99.90;;;;;;5160080;27;19946;-69
2022/04/04 09:43:07;;;;;;;;;;;5.50;99.90;;;;;;5178193;27;19982;-69
2022/04/04 09:45:32;;;;;;;;;;;5.20;99.90;;;;;;5178042;27;19923;-69
2022/04/04 09:48:01;;;;;;;;;;;5.20;99.90;;;;;;5178057;27;19926;-69
2022/04/04 09:50:41;;;;;;;;;;;5.20;99.90;;;;;;5178295;27;19982;-68
2022/04/04 09:53:16;;;;;;;;;;;5.20;99.90;;;;;;5178104;27;20478;-68
2022/04/04 09:55:49;;;;;;;;;;;5.20;99.90;;;;;;5178108;27;20017;-68
2022/04/04 09:58:16;;;;;;;;;;;5.20;99.90;;;;;;5177983;27;19923;-70
2022/04/04 10:00:44;;;;;;;;;;;5.20;99.90;;;;;;5157092;27;19931;-68
2022/04/04 10:03:13;;;;;;;;;;;5.30;99.90;;;;;;5158852;27;19965;-68
2022/04/04 10:05:42;;;;;;;;;;;5.30;99.90;;;;;;5157059;27;19923;-69
2022/04/04 10:08:23;;;;;;;;;;;5.30;99.90;;;;;;5141010;27;19931;-68
2022/04/04 10:10:49;;;;;;;;;;;5.40;99.90;;;;;;5156601;27;19923;-68
2022/04/04 10:13:16;;;;;;;;;;;5.40;99.90;;;;;;5156506;27;19923;-68
2022/04/04 10:15:43;;;;;;;;;;;5.40;99.90;;;;;;5156257;27;19923;-68
2022/04/04 10:18:09;;;;;;;;;;;5.40;99.90;;;;;;5156704;27;20006;-68
2022/04/04 10:20:36;;;;;;;;;;;5.40;99.90;;;;;;5156636;27;19934;-68
2022/04/04 10:23:04;;;;;;;;;;;7.30;99.90;;;;;;5156363;27;19927;-68
2022/04/04 10:25:32;;;;;;;;;;;5.50;99.90;;;;;;5156413;27;19930;-68
2022/04/04 10:28:01;;;;;;;;;;;5.50;99.90;;;;;;5156237;27;20378;-68
2022/04/04 10:30:35;;;;;;;;;;;5.50;99.90;;;;;;5156569;27;19930;-68
2022/04/04 10:33:05;;;;;;;;;;;5.50;99.90;;;;;;5156325;27;20095;-68
2022/04/04 10:35:32;;;;;;;;;;;5.50;99.90;;;;;;5137781;27;19927;-68
2022/04/04 10:38:01;;;;;;;;;;;5.60;99.90;;;;;;5156273;27;19927;-68
2022/04/04 10:40:28;;;;;;;;;;;5.50;99.90;;;;;;5156122;27;19923;-67
2022/04/04 10:43:07;;;;;;;;;;;5.50;99.90;;;;;;5155508;27;20378;-67
2022/04/04 10:45:53;;;;;;;;;;;5.60;99.90;;;;;;5137968;27;19927;-67
2022/04/04 10:48:19;;;;;;;;;;;5.60;99.90;;;;;;5155114;27;19929;-69
2022/04/04 10:50:45;;;;;;;;;;;5.60;99.90;;;;;;5137684;27;19923;-68
2022/04/04 10:53:11;;;;;;;;;;;5.60;99.90;;;;;;5156049;27;19924;-68
2022/04/04 10:55:37;;;;;;;;;;;5.60;99.90;;;;;;5155672;27;19945;-69
2022/04/04 10:58:07;;;;;;;;;;;5.60;99.90;;;;;;5160875;27;19923;-68
2022/04/04 11:00:37;;;;;;;;;;;5.60;99.90;;;;;;5164585;27;20299;-68
2022/04/04 11:03:03;;;;;;;;;;;5.60;99.90;;;;;;5137381;27;19923;-68
2022/04/04 11:08:30;;;;;;;;;;;5.60;99.90;;;;;;5155726;27;19923;-68
2022/04/04 11:10:57;;;;;;;;;;;5.70;99.90;;;;;;5155751;27;20377;-67
2022/04/04 11:13:24;;;;;;;;;;;5.70;99.90;;;;;;5155569;27;20481;-69
2022/04/04 11:15:55;;;;;;;;;;;5.80;99.90;;;;;;5136757;27;20282;-68
2022/04/04 11:18:22;;;;;;;;;;;5.70;99.90;;;;;;5155440;27;19923;-68
2022/04/04 11:20:49;;;;;;;;;;;5.80;99.90;;;;;;5154920;27;19923;-68
2022/04/04 11:23:15;;;;;;;;;;;5.80;99.90;;;;;;5139456;27;20304;-69
2022/04/04 11:25:52;;;;;;;;;;;5.80;99.90;;;;;;5155218;27;19976;-67
2022/04/04 11:28:30;;;;;;;;;;;5.80;99.90;;;;;;5155318;27;20006;-68
2022/04/04 11:31:04;;;;;;;;;;;5.90;99.90;;;;;;5155333;27;19923;-68
2022/04/04 11:33:32;;;;;;;;;;;5.90;99.90;;;;;;5155371;27;20364;-68
2022/04/04 11:35:58;;;;;;;;;;;5.90;99.90;;;;;;5155369;27;19946;-68
2022/04/04 11:38:24;;;;;;;;;;;5.90;99.90;;;;;;5154921;27;19930;-68
2022/04/04 11:40:55;;;;;;;;;;;6.00;99.90;;;;;;5155252;27;19923;-68
2022/04/04 11:43:24;;;;;;;;;;;6.00;99.90;;;;;;5155302;27;19927;-68
2022/04/04 11:45:52;;;;;;;;;;;6.00;99.90;;;;;;5155536;27;20013;-69
2022/04/04 11:48:27;;;;;;;;;;;6.00;99.90;;;;;;5155480;27;19930;-68
2022/04/04 11:50:57;;;;;;;;;;;6.00;99.90;;;;;;5153149;27;19923;-67
2022/04/04 11:53:25;;;;;;;;;;;6.10;99.90;;;;;;5141518;27;19930;-68
2022/04/04 11:56:02;;;;;;;;;;;6.10;99.90;;;;;;5159048;27;19930;-67
2022/04/04 11:58:31;;;;;;;;;;;6.10;99.90;;;;;;5159664;27;20068;-67
2022/04/04 12:01:04;;;;;;;;;;;6.10;99.90;;;;;;5124020;27;19927;-68
2022/04/04 12:03:40;;;;;;;;;;;6.20;99.90;;;;;;5159503;27;20001;-68
2022/04/04 12:06:07;;;;;;;;;;;6.20;99.90;;;;;;5159033;27;20416;-68
2022/04/04 12:08:35;;;;;;;;;;;6.30;99.90;;;;;;5159099;27;19923;-69
2022/04/04 12:11:03;;;;;;;;;;;6.30;99.90;;;;;;5159111;27;19923;-69
2022/04/04 12:13:31;;;;;;;;;;;6.40;99.90;;;;;;5159119;27;19968;-68
2022/04/04 12:15:58;;;;;;;;;;;6.40;99.90;;;;;;5158816;27;19924;-69
2022/04/04 12:18:27;;;;;;;;;;;6.40;99.90;;;;;;5159168;27;19923;-67
2022/04/04 12:20:55;;;;;;;;;;;6.50;99.90;;;;;;5138640;27;19929;-68
2022/04/04 12:26:11;;;;;;;;;;;6.50;99.90;;;;;;5159288;27;19923;-68
2022/04/04 12:28:39;;;;;;;;;;;6.60;99.90;;;;;;5140710;27;20357;-68
2022/04/04 12:31:13;;;;;;;;;;;6.60;99.90;;;;;;5158856;27;19923;-68
2022/04/04 12:33:40;;;;;;;;;;;6.60;99.90;;;;;;5140467;27;19923;-68
2022/04/04 12:36:07;;;;;;;;;;;6.60;99.90;;;;;;5158790;27;20306;-68
2022/04/04 12:38:36;;;;;;;;;;;6.60;99.90;;;;;;5158941;27;19923;-68
2022/04/04 12:41:15;;;;;;;;;;;6.70;99.90;;;;;;5140638;27;19971;-69
2022/04/04 12:43:44;;;;;;;;;;;6.60;99.90;;;;;;5158787;27;19972;-67
2022/04/04 12:46:31;;;;;;;;;;;6.70;99.90;;;;;;5158479;27;20281;-68
2022/04/04 12:49:07;;;;;;;;;;;6.70;99.90;;;;;;5158111;27;19924;-68
2022/04/04 12:51:34;;;;;;;;;;;6.70;99.90;;;;;;5144446;27;19930;-68
2022/04/04 12:54:03;;;;;;;;;;;6.80;99.90;;;;;;5137153;27;19927;-68
2022/04/04 12:56:33;;;;;;;;;;;6.80;99.90;;;;;;5158330;27;19923;-68
2022/04/04 12:59:07;;;;;;;;;;;6.80;99.90;;;;;;5158324;27;20401;-68
2022/04/04 13:01:34;;;;;;;;;;;6.90;99.90;;;;;;5158103;27;20301;-68
2022/04/04 13:04:03;;;;;;;;;;;6.90;99.90;;;;;;5157910;27;19931;-68
2022/04/04 13:06:32;;;;;;;;;;;6.90;99.90;;;;;;5156835;27;19943;-68
2022/04/04 13:09:00;;;;;;;;;;;7.00;99.90;;;;;;5157898;27;19923;-67
2022/04/04 13:11:28;;;;;;;;;;;7.00;99.90;;;;;;5158076;27;20458;-68
2022/04/04 13:14:06;;;;;;;;;;;7.00;99.90;;;;;;5157982;27;20303;-68
2022/04/04 13:16:36;;;;;;;;;;;7.00;99.90;;;;;;5157628;27;19946;-68
2022/04/04 13:19:06;;;;;;;;;;;7.10;99.90;;;;;;5158088;27;20426;-67
2022/04/04 13:21:34;;;;;;;;;;;7.10;99.90;;;;;;5144519;27;20427;-68
2022/04/04 13:24:02;;;;;;;;;;;7.20;99.90;;;;;;5154833;27;19923;-68
2022/04/04 13:26:28;;;;;;;;;;;7.10;99.90;;;;;;5139449;27;20297;-69
2022/04/04 13:28:56;;;;;;;;;;;7.20;99.90;;;;;;5157729;27;20306;-68
2022/04/04 13:31:23;;;;;;;;;;;7.20;99.90;;;;;;5157713;27;19974;-69
2022/04/04 13:33:50;;;;;;;;;;;7.30;99.90;;;;;;5157632;27;20377;-68
2022/04/04 13:36:20;;;;;;;;;;;7.30;99.90;;;;;;5157379;27;19923;-68
2022/04/04 13:38:48;;;;;;;;;;;7.30;99.90;;;;;;5157360;27;20389;-68
2022/04/04 13:41:19;;;;;;;;;;;7.40;99.90;;;;;;5139557;27;19923;-68
2022/04/04 13:43:46;;;;;;;;;;;7.40;99.90;;;;;;5157809;27;20425;-69
2022/04/04 13:46:16;;;;;;;;;;;7.50;99.90;;;;;;5157670;27;19923;-69
2022/04/04 13:48:43;;;;;;;;;;;7.50;99.90;;;;;;5157587;27;19938;-69
2022/04/04 13:51:09;;;;;;;;;;;7.50;99.90;;;;;;5135294;27;20301;-68
2022/04/04 13:53:37;;;;;;;;;;;7.50;99.90;;;;;;5152286;27;19924;-68
2022/04/04 13:56:04;;;;;;;;;;;7.50;99.90;;;;;;5157545;27;19975;-68
2022/04/04 13:58:31;;;;;;;;;;;7.60;99.90;;;;;;5157447;27;20356;-68
2022/04/04 14:00:58;;;;;;;;;;;7.60;99.90;;;;;;5157299;27;19923;-68
2022/04/04 14:03:25;;;;;;;;;;;7.70;99.90;;;;;;5156942;27;19923;-67
2022/04/04 14:05:56;;;;;;;;;;;7.70;99.90;;;;;;5157028;27;20385;-69
2022/04/04 14:08:22;;;;;;;;;;;7.70;99.90;;;;;;5156885;27;19934;-68
2022/04/04 14:10:50;;;;;;;;;;;7.70;99.90;;;;;;5156750;27;19927;-68
2022/04/04 14:13:17;;;;;;;;;;;7.70;99.90;;;;;;5157028;27;19983;-68
2022/04/04 14:15:44;;;;;;;;;;;7.80;99.90;;;;;;5156588;27;19923;-68
2022/04/04 14:18:11;;;;;;;;;;;7.80;99.90;;;;;;5155698;27;20297;-69
2022/04/04 14:20:41;;;;;;;;;;;7.80;99.90;;;;;;5156799;27;20279;-68
2022/04/04 14:23:08;;;;;;;;;;;7.90;99.90;;;;;;5157039;27;19923;-70
2022/04/04 14:25:34;;;;;;;;;;;7.90;99.90;;;;;;5156435;27;19923;-68
2022/04/04 14:28:01;;;;;;;;;;;7.90;99.90;;;;;;5160966;27;19969;-68
2022/04/04 14:30:28;;;;;;;;;;;7.90;99.90;;;;;;5169696;27;19930;-69
2022/04/04 14:32:55;;;;;;;;;;;7.90;99.90;;;;;;5157105;27;19931;-70
2022/04/04 14:35:22;;;;;;;;;;;7.90;99.90;;;;;;5156237;27;20006;-69
2022/04/04 14:37:50;;;;;;;;;;;8.00;99.90;;;;;;5156424;27;19923;-69
2022/04/04 14:40:17;;;;;;;;;;;8.00;99.90;;;;;;5156382;27;19923;-69
2022/04/04 14:42:44;;;;;;;;;;;8.00;99.90;;;;;;5156179;27;19923;-68